Time;durP1;ratioP1;P1;durP2;ratioP2;P2;SDS_P1;SDS_P2;PMS_P1;PMS_P2;Temp;Humidity;BMP_temperature;BMP_pressure;BME280_temperature;BME280_humidity;BME280_pressure;Samples;Min_cycle;Max_cycle;Signal;HPM_P1;HPM_P2
2022/12/09 00:01:21;;;;;;;18.10;10.60;;;-2.40;99.90;;;;;;4992058;28;20393;-72
2022/12/09 00:03:47;;;;;;;18.88;10.57;;;-2.40;99.90;;;;;;5010010;28;20433;-72
2022/12/09 00:06:18;;;;;;;19.38;10.32;;;-2.40;99.90;;;;;;5009700;28;20065;-72
2022/12/09 00:08:44;;;;;;;18.83;11.00;;;-2.50;99.90;;;;;;5009712;28;20383;-71
2022/12/09 00:11:10;;;;;;;20.20;10.98;;;-2.50;99.90;;;;;;5010173;28;20049;-71
2022/12/09 00:13:36;;;;;;;26.13;11.82;;;-2.50;99.90;;;;;;5010093;28;20165;-71
2022/12/09 00:16:11;;;;;;;26.45;14.10;;;-2.60;99.90;;;;;;5009774;28;20108;-72
2022/12/09 00:18:37;;;;;;;22.50;12.20;;;-2.60;99.90;;;;;;5009674;28;20042;-71
2022/12/09 00:21:13;;;;;;;21.33;11.73;;;-2.60;99.90;;;;;;5009525;28;20405;-71
2022/12/09 00:23:39;;;;;;;19.30;11.15;;;-2.60;99.90;;;;;;5009505;28;20033;-70
2022/12/09 00:26:04;;;;;;;17.83;9.75;;;-2.60;99.90;;;;;;5009453;28;20057;-70
2022/12/09 00:28:30;;;;;;;14.60;8.85;;;-2.70;99.90;;;;;;4991790;28;20389;-71
2022/12/09 00:31:00;;;;;;;13.13;7.93;;;-2.70;99.90;;;;;;5009347;28;20125;-71
2022/12/09 00:33:26;;;;;;;13.95;7.20;;;-2.70;99.90;;;;;;5009346;28;20077;-71
2022/12/09 00:35:51;;;;;;;13.00;8.25;;;-2.70;99.90;;;;;;4991581;28;20200;-72
2022/12/09 00:38:17;;;;;;;16.30;8.57;;;-2.80;99.90;;;;;;5010370;28;20056;-71
2022/12/09 00:40:43;;;;;;;19.23;10.60;;;-2.80;99.90;;;;;;5015980;28;20050;-72
2022/12/09 00:43:08;;;;;;;17.35;9.07;;;-2.90;99.90;;;;;;5015910;28;20050;-73
2022/12/09 00:45:34;;;;;;;17.75;9.13;;;-2.90;99.90;;;;;;5015456;28;20099;-73
2022/12/09 00:47:59;;;;;;;14.07;8.32;;;-2.80;99.90;;;;;;5016272;28;20132;-72
2022/12/09 00:50:25;;;;;;;14.00;7.95;;;-2.80;99.90;;;;;;4998315;28;20073;-71
2022/12/09 00:52:50;;;;;;;16.55;9.07;;;-2.90;99.90;;;;;;5015743;28;20042;-71
2022/12/09 00:55:16;;;;;;;17.75;8.82;;;-2.90;99.90;;;;;;5016180;28;20038;-70
2022/12/09 00:57:42;;;;;;;20.42;9.77;;;-2.80;99.90;;;;;;5016047;28;20489;-77
2022/12/09 01:00:08;;;;;;;18.58;9.70;;;-2.90;99.90;;;;;;5016070;28;20544;-69
2022/12/09 01:02:34;;;;;;;16.80;9.75;;;-2.90;99.90;;;;;;5015425;28;20053;-72
2022/12/09 01:05:00;;;;;;;17.92;9.50;;;-2.90;99.90;;;;;;5015904;28;20552;-73
2022/12/09 01:07:26;;;;;;;15.63;9.02;;;-2.90;99.90;;;;;;5016036;28;20161;-72
2022/12/09 01:09:51;;;;;;;16.42;9.30;;;-2.90;99.90;;;;;;5016485;28;20041;-71
2022/12/09 01:12:17;;;;;;;20.13;10.57;;;-2.90;99.90;;;;;;5016278;28;20787;-71
2022/12/09 01:14:42;;;;;;;20.48;9.88;;;-2.80;99.90;;;;;;4997851;28;20104;-74
2022/12/09 01:17:08;;;;;;;21.23;11.13;;;-2.80;99.90;;;;;;5015602;28;20560;-71
2022/12/09 01:19:34;;;;;;;18.70;10.85;;;-2.30;99.90;;;;;;5016025;28;20056;-71
2022/12/09 01:21:59;;;;;;;20.33;10.68;;;-2.70;99.90;;;;;;4998029;28;20056;-71
2022/12/09 01:24:25;;;;;;;17.90;9.27;;;-2.80;99.90;;;;;;5015313;28;20048;-72
2022/12/09 01:26:50;;;;;;;17.58;10.02;;;-2.80;99.90;;;;;;5015865;28;20100;-71
2022/12/09 01:29:16;;;;;;;24.63;10.45;;;-2.80;99.90;;;;;;5015780;28;20450;-71
2022/12/09 01:31:42;;;;;;;22.27;11.18;;;-2.70;99.90;;;;;;4997637;28;20054;-71
2022/12/09 01:34:08;;;;;;;25.45;11.43;;;-2.70;99.90;;;;;;4998144;28;20053;-72
2022/12/09 01:36:33;;;;;;;21.17;10.43;;;-2.70;99.90;;;;;;5014998;28;20085;-71
2022/12/09 01:38:59;;;;;;;20.65;10.35;;;-2.60;99.90;;;;;;5015481;28;20152;-70
2022/12/09 01:41:26;;;;;;;21.10;10.32;;;-2.70;99.90;;;;;;4997859;28;20112;-72
2022/12/09 01:44:09;;;;;;;23.02;10.88;;;-2.60;99.90;;;;;;5015458;28;20048;-72
2022/12/09 01:46:35;;;;;;;22.45;11.13;;;-2.60;99.90;;;;;;4997276;28;20748;-70
2022/12/09 01:49:01;;;;;;;20.73;10.57;;;-2.60;99.90;;;;;;5015707;28;20064;-71
2022/12/09 01:51:27;;;;;;;19.23;10.18;;;-2.60;99.90;;;;;;5011452;28;20104;-70
2022/12/09 01:53:52;;;;;;;22.45;11.23;;;-2.60;99.90;;;;;;5012162;28;20046;-70
2022/12/09 01:56:28;;;;;;;21.55;10.27;;;-2.60;99.90;;;;;;5012230;28;20050;-74
2022/12/09 01:58:57;;;;;;;28.50;10.88;;;-2.60;99.90;;;;;;5012261;28;20115;-71
2022/12/09 02:01:23;;;;;;;22.65;10.98;;;-2.60;99.90;;;;;;5012421;28;20068;-70
2022/12/09 02:03:49;;;;;;;20.55;10.23;;;-2.60;99.90;;;;;;5012240;28;20664;-71
2022/12/09 02:06:14;;;;;;;23.60;10.82;;;-2.60;99.90;;;;;;5012297;28;20054;-72
2022/12/09 02:08:40;;;;;;;22.40;11.18;;;-2.60;99.90;;;;;;4993280;28;20066;-71
2022/12/09 02:11:38;;;;;;;21.90;11.23;;;-2.60;99.90;;;;;;4993561;28;20086;-70
2022/12/09 02:14:09;;;;;;;19.10;10.00;;;-2.60;99.90;;;;;;4950779;29;20067;-72
2022/12/09 02:16:41;;;;;;;20.77;10.32;;;-2.60;99.90;;;;;;4948346;29;20130;-69
2022/12/09 02:19:35;;;;;;;21.83;9.73;;;-2.60;99.90;;;;;;4931873;29;20135;-71
2022/12/09 02:22:00;;;;;;;25.90;11.18;;;-2.70;99.90;;;;;;4916341;29;20051;-71
2022/12/09 02:24:37;;;;;;;24.48;10.65;;;-2.60;99.90;;;;;;4931583;29;20130;-71
2022/12/09 02:27:28;;;;;;;24.77;11.10;;;-2.60;99.90;;;;;;4931577;29;20061;-70
2022/12/09 02:30:13;;;;;;;21.77;10.15;;;-2.50;99.90;;;;;;4932311;29;20062;-70
2022/12/09 02:33:06;;;;;;;21.65;10.80;;;-2.50;99.90;;;;;;4900300;29;20059;-70
2022/12/09 02:35:44;;;;;;;21.35;10.35;;;-2.50;99.90;;;;;;4931726;29;20138;-68
2022/12/09 02:38:34;;;;;;;20.15;9.82;;;-2.40;99.90;;;;;;4915250;29;20499;-70
2022/12/09 02:41:17;;;;;;;23.75;10.52;;;-2.40;99.90;;;;;;4931009;29;20052;-70
2022/12/09 02:43:48;;;;;;;21.17;10.10;;;-2.40;99.90;;;;;;4931420;29;20478;-70
2022/12/09 02:46:18;;;;;;;24.15;11.18;;;-2.40;99.90;;;;;;4930896;29;20515;-74
2022/12/09 02:48:49;;;;;;;23.83;11.60;;;-2.30;99.90;;;;;;4931193;29;20052;-80
2022/12/09 02:51:17;;;;;;;26.77;11.48;;;-2.30;99.90;;;;;;4968788;28;20069;-71
2022/12/09 02:53:47;;;;;;;20.83;10.05;;;-2.30;99.90;;;;;;5010494;28;20052;-70
2022/12/09 02:56:16;;;;;;;25.45;11.95;;;-2.30;99.90;;;;;;4993333;28;20077;-70
2022/12/09 02:58:41;;;;;;;23.80;11.48;;;-2.30;99.90;;;;;;4993577;28;20057;-70
2022/12/09 03:01:34;;;;;;;24.10;11.20;;;-2.20;99.90;;;;;;5009380;28;20045;-70
2022/12/09 03:04:01;;;;;;;24.08;11.85;;;-2.20;99.90;;;;;;4993575;28;20427;-71
2022/12/09 03:06:34;;;;;;;25.77;10.43;;;-2.20;99.90;;;;;;5010434;28;20509;-70
2022/12/09 03:09:16;;;;;;;22.83;11.32;;;-2.10;99.90;;;;;;4992828;28;20066;-71
2022/12/09 03:11:42;;;;;;;24.00;11.35;;;-2.10;99.90;;;;;;4992809;28;20520;-73
2022/12/09 03:14:16;;;;;;;26.90;11.23;;;-2.10;99.90;;;;;;5010552;28;20130;-69
2022/12/09 03:17:16;;;;;;;21.70;11.18;;;-2.10;99.90;;;;;;5010841;28;20045;-71
2022/12/09 03:19:59;;;;;;;25.05;10.88;;;-2.10;99.90;;;;;;5009643;28;20046;-68
2022/12/09 03:22:28;;;;;;;24.25;11.65;;;-2.60;99.90;;;;;;5008143;28;20041;-70
2022/12/09 03:25:09;;;;;;;26.65;11.40;;;-2.20;99.90;;;;;;4991994;28;20112;-71
2022/12/09 03:27:45;;;;;;;25.88;11.65;;;-2.10;99.90;;;;;;5014603;28;20041;-71
2022/12/09 03:30:11;;;;;;;25.08;11.23;;;-2.10;99.90;;;;;;5012702;28;20144;-71
2022/12/09 03:32:39;;;;;;;23.02;11.80;;;-2.10;99.90;;;;;;5027928;28;20691;-70
2022/12/09 03:35:12;;;;;;;21.70;10.80;;;-2.10;99.90;;;;;;4996578;28;20403;-68
2022/12/09 03:37:40;;;;;;;21.80;11.07;;;-2.10;99.90;;;;;;5023387;28;20099;-71
2022/12/09 03:40:09;;;;;;;25.70;12.05;;;-2.00;99.90;;;;;;5029490;28;20783;-71
2022/12/09 03:42:51;;;;;;;29.05;11.63;;;-2.00;99.90;;;;;;5029673;28;20053;-70
2022/12/09 03:45:18;;;;;;;23.45;11.40;;;-2.00;99.90;;;;;;5010128;28;20053;-71
2022/12/09 03:47:44;;;;;;;28.02;11.95;;;-1.90;99.90;;;;;;5029669;28;20042;-71
2022/12/09 03:50:10;;;;;;;25.95;11.40;;;-1.90;99.90;;;;;;5019445;28;20128;-69
2022/12/09 03:52:50;;;;;;;22.90;12.07;;;-1.90;99.90;;;;;;5009685;28;20103;-69
2022/12/09 03:55:35;;;;;;;28.48;11.07;;;-1.90;99.90;;;;;;5001374;28;20054;-71
2022/12/09 03:58:03;;;;;;;23.27;11.13;;;-1.90;99.90;;;;;;5009927;28;20046;-70
2022/12/09 04:00:29;;;;;;;23.35;11.30;;;-2.00;99.90;;;;;;5010009;28;20050;-70
2022/12/09 04:02:55;;;;;;;23.88;11.65;;;-2.00;99.90;;;;;;5010030;28;20054;-71
2022/12/09 04:05:20;;;;;;;26.88;10.93;;;-2.00;99.90;;;;;;4993404;28;20096;-70
2022/12/09 04:07:46;;;;;;;22.35;11.40;;;-2.00;99.90;;;;;;5009750;28;20077;-73
2022/12/09 04:10:12;;;;;;;22.45;11.27;;;-2.00;99.90;;;;;;5025249;28;20034;-70
2022/12/09 04:12:38;;;;;;;23.48;11.38;;;-2.00;99.90;;;;;;4996415;28;20049;-70
2022/12/09 04:15:05;;;;;;;25.63;12.13;;;-2.00;99.90;;;;;;5009330;28;20529;-71
2022/12/09 04:17:31;;;;;;;23.70;11.25;;;-1.90;99.90;;;;;;5009916;28;20042;-71
2022/12/09 04:19:56;;;;;;;30.58;13.13;;;-1.90;99.90;;;;;;5008727;28;20072;-68
2022/12/09 04:22:22;;;;;;;25.63;11.73;;;-1.90;99.90;;;;;;4999138;28;20089;-73
2022/12/09 04:24:47;;;;;;;25.40;12.82;;;-1.90;99.90;;;;;;5009419;28;20046;-71
2022/12/09 04:27:13;;;;;;;24.60;13.25;;;-1.90;99.90;;;;;;4992042;28;20468;-72
2022/12/09 04:29:39;;;;;;;21.42;10.20;;;-1.90;99.90;;;;;;4992328;28;20532;-71
2022/12/09 04:32:05;;;;;;;20.38;10.80;;;-1.60;99.90;;;;;;4992567;28;20057;-70
2022/12/09 04:34:31;;;;;;;22.25;10.55;;;-2.10;99.90;;;;;;4991653;28;20045;-71
2022/12/09 04:36:57;;;;;;;22.73;10.95;;;-2.10;99.90;;;;;;5009727;28;20553;-71
2022/12/09 04:39:23;;;;;;;23.65;12.95;;;-2.20;99.90;;;;;;5009343;28;20125;-79
2022/12/09 04:41:48;;;;;;;22.45;11.43;;;-2.20;99.90;;;;;;5010314;28;20058;-73
2022/12/09 04:44:14;;;;;;;23.55;10.52;;;-2.20;99.90;;;;;;4991813;28;20057;-71
2022/12/09 04:46:40;;;;;;;25.42;11.48;;;-2.20;99.90;;;;;;5009334;28;20052;-71
2022/12/09 04:49:05;;;;;;;22.23;10.90;;;-2.10;99.90;;;;;;4991607;28;20104;-71
2022/12/09 04:51:31;;;;;;;25.85;12.57;;;-2.10;99.90;;;;;;5015787;28;20088;-71
2022/12/09 04:53:57;;;;;;;22.20;10.85;;;-2.10;99.90;;;;;;4992066;28;20061;-72
2022/12/09 04:56:23;;;;;;;22.25;11.65;;;-2.10;99.90;;;;;;5009342;28;20042;-70
2022/12/09 04:58:50;;;;;;;23.85;10.52;;;-2.20;99.90;;;;;;5007199;28;20472;-70
2022/12/09 05:01:19;;;;;;;22.15;10.68;;;-2.20;99.90;;;;;;5009325;28;20050;-69
2022/12/09 05:03:50;;;;;;;27.17;11.88;;;-2.30;99.90;;;;;;5010571;28;20184;-73
2022/12/09 05:06:16;;;;;;;26.85;13.10;;;-2.30;99.90;;;;;;5009685;28;20054;-71
2022/12/09 05:08:42;;;;;;;22.30;11.43;;;-2.30;99.90;;;;;;5009815;28;20053;-71
2022/12/09 05:11:08;;;;;;;24.25;11.40;;;-2.20;99.90;;;;;;5004647;28;20086;-71
2022/12/09 05:13:34;;;;;;;24.35;11.57;;;-2.20;99.90;;;;;;5010872;28;20042;-71
2022/12/09 05:16:05;;;;;;;24.73;10.80;;;-2.20;99.90;;;;;;4989615;28;20068;-70
2022/12/09 05:18:31;;;;;;;26.23;11.38;;;-2.30;99.90;;;;;;4999073;28;20042;-70
2022/12/09 05:20:56;;;;;;;21.90;11.15;;;-2.30;99.90;;;;;;5009200;28;20076;-70
2022/12/09 05:23:22;;;;;;;27.08;11.90;;;-2.20;99.90;;;;;;5009672;28;20552;-70
2022/12/09 05:25:48;;;;;;;24.30;11.43;;;-2.20;99.90;;;;;;5011840;28;20046;-70
2022/12/09 05:28:14;;;;;;;27.65;12.50;;;-2.20;99.90;;;;;;5012807;28;20057;-69
2022/12/09 05:30:39;;;;;;;25.77;12.52;;;-2.20;99.90;;;;;;5012521;28;20085;-71
2022/12/09 05:33:05;;;;;;;23.63;11.93;;;-2.20;99.90;;;;;;5012466;28;20147;-70
2022/12/09 05:35:31;;;;;;;26.98;13.25;;;-2.20;99.90;;;;;;4995049;28;20092;-71
2022/12/09 05:37:57;;;;;;;25.80;12.30;;;-2.20;99.90;;;;;;4994622;28;20101;-70
2022/12/09 05:40:23;;;;;;;30.17;13.30;;;-2.20;99.90;;;;;;4994550;28;20050;-70
2022/12/09 05:42:48;;;;;;;25.75;12.10;;;-2.20;99.90;;;;;;4994715;28;20052;-71
2022/12/09 05:45:14;;;;;;;25.58;12.27;;;-2.90;99.90;;;;;;5013546;28;20081;-74
2022/12/09 05:47:40;;;;;;;27.70;12.93;;;-2.20;99.90;;;;;;5012176;28;20100;-70
2022/12/09 05:50:07;;;;;;;25.55;13.27;;;-2.10;99.90;;;;;;4994318;28;20084;-71
2022/12/09 05:52:36;;;;;;;28.27;14.63;;;-2.20;99.90;;;;;;5012039;28;20141;-70
2022/12/09 05:55:07;;;;;;;26.55;14.43;;;-2.20;99.90;;;;;;5012284;28;20061;-69
2022/12/09 05:57:33;;;;;;;25.35;13.40;;;-2.10;99.90;;;;;;5012654;28;20092;-74
2022/12/09 05:59:58;;;;;;;26.65;13.23;;;-2.10;99.90;;;;;;5012641;28;20099;-70
2022/12/09 06:02:24;;;;;;;26.38;13.32;;;-2.10;99.90;;;;;;5012240;28;20050;-70
2022/12/09 06:04:49;;;;;;;26.55;12.75;;;-2.10;99.90;;;;;;5012154;28;20571;-71
2022/12/09 06:07:15;;;;;;;27.88;12.82;;;-2.10;99.90;;;;;;4995310;28;20053;-71
2022/12/09 06:09:43;;;;;;;23.95;12.20;;;-2.10;99.90;;;;;;4994593;28;20408;-72
2022/12/09 06:12:08;;;;;;;23.27;12.65;;;-2.20;99.90;;;;;;4993641;28;20050;-72
2022/12/09 06:14:34;;;;;;;26.42;12.75;;;-2.30;99.90;;;;;;4994069;28;20413;-70
2022/12/09 06:17:00;;;;;;;23.75;12.55;;;-2.40;99.90;;;;;;5016567;28;20411;-72
2022/12/09 06:19:25;;;;;;;23.92;11.70;;;-2.40;99.90;;;;;;5013579;28;20412;-71
2022/12/09 06:21:51;;;;;;;27.23;12.00;;;-2.50;99.90;;;;;;5026349;28;20045;-70
2022/12/09 06:24:16;;;;;;;20.77;10.52;;;-2.50;99.90;;;;;;5012511;28;20441;-74
2022/12/09 06:26:42;;;;;;;22.63;11.35;;;-2.50;99.90;;;;;;5011720;28;20080;-71
2022/12/09 06:29:08;;;;;;;19.40;10.70;;;-2.60;99.90;;;;;;4995256;28;20145;-72
2022/12/09 06:31:34;;;;;;;22.52;10.73;;;-2.60;99.90;;;;;;5011753;28;20437;-74
2022/12/09 06:33:59;;;;;;;20.52;10.95;;;-2.60;99.90;;;;;;4993665;28;20050;-71
2022/12/09 06:36:27;;;;;;;20.42;10.77;;;-2.70;99.90;;;;;;4993967;28;20058;-70
2022/12/09 06:38:53;;;;;;;24.23;11.88;;;-2.70;99.90;;;;;;5012307;28;20100;-73
2022/12/09 06:41:19;;;;;;;24.73;12.00;;;-2.80;99.90;;;;;;4993707;28;20050;-71
2022/12/09 06:43:44;;;;;;;25.55;11.52;;;-2.70;99.90;;;;;;5011763;28;20053;-71
2022/12/09 06:46:18;;;;;;;22.27;10.93;;;-2.60;99.90;;;;;;5011285;28;20213;-70
2022/12/09 06:48:44;;;;;;;27.52;11.80;;;-2.30;99.90;;;;;;5012418;28;20386;-70
2022/12/09 06:51:10;;;;;;;23.83;11.70;;;-2.60;99.90;;;;;;5010618;28;20050;-71
2022/12/09 06:53:36;;;;;;;28.33;12.52;;;-2.50;99.90;;;;;;4993462;28;20486;-72
2022/12/09 06:56:04;;;;;;;24.23;11.98;;;-2.50;99.90;;;;;;4993586;28;20121;-70
2022/12/09 06:58:32;;;;;;;26.00;11.38;;;-2.50;99.90;;;;;;4993398;28;20148;-72
2022/12/09 07:01:12;;;;;;;26.00;12.38;;;-2.40;99.90;;;;;;5011941;28;20054;-71
2022/12/09 07:03:38;;;;;;;23.20;11.57;;;-2.40;99.90;;;;;;4993325;28;20392;-70
2022/12/09 07:06:03;;;;;;;23.45;12.20;;;-2.40;99.90;;;;;;4993286;28;20119;-70
2022/12/09 07:08:29;;;;;;;22.23;11.00;;;-2.50;99.90;;;;;;5010684;28;20045;-70
2022/12/09 07:10:55;;;;;;;23.88;11.75;;;-2.50;99.90;;;;;;5011662;28;20152;-71
2022/12/09 07:13:20;;;;;;;22.83;11.63;;;-2.60;99.90;;;;;;4992626;28;20042;-73
2022/12/09 07:15:46;;;;;;;22.65;11.38;;;-2.60;99.90;;;;;;4992955;28;20053;-71
2022/12/09 07:18:12;;;;;;;21.88;12.10;;;-2.60;99.90;;;;;;4992876;28;20565;-71
2022/12/09 07:20:37;;;;;;;23.40;11.18;;;-2.70;99.90;;;;;;4994456;28;20053;-70
2022/12/09 07:23:03;;;;;;;21.83;11.90;;;-2.60;99.90;;;;;;5012084;28;20048;-71
2022/12/09 07:25:28;;;;;;;26.98;12.80;;;-2.60;99.90;;;;;;5012111;28;20136;-72
2022/12/09 07:27:54;;;;;;;23.90;12.57;;;-2.60;99.90;;;;;;5029880;28;20126;-72
2022/12/09 07:30:19;;;;;;;25.70;12.70;;;-2.60;99.90;;;;;;5012492;28;20121;-71
2022/12/09 07:32:45;;;;;;;30.67;11.98;;;-2.50;99.90;;;;;;5028441;28;20046;-70
2022/12/09 07:35:11;;;;;;;25.92;12.20;;;-2.50;99.90;;;;;;5011658;28;20517;-70
2022/12/09 07:37:37;;;;;;;26.27;12.63;;;-2.50;99.90;;;;;;5010850;28;20335;-71
2022/12/09 07:40:03;;;;;;;29.83;12.98;;;-2.40;99.90;;;;;;5012494;28;20064;-71
2022/12/09 07:42:28;;;;;;;26.05;12.98;;;-2.40;99.90;;;;;;5028227;28;20044;-70
2022/12/09 07:44:54;;;;;;;26.55;12.45;;;-2.40;99.90;;;;;;5011755;28;20517;-70
2022/12/09 07:47:19;;;;;;;30.00;13.30;;;-2.40;99.90;;;;;;5012043;28;20053;-71
2022/12/09 07:49:45;;;;;;;25.75;13.20;;;-2.40;99.90;;;;;;5026797;28;20049;-71
2022/12/09 07:52:12;;;;;;;26.85;12.88;;;-2.40;99.90;;;;;;4996140;28;20088;-73
2022/12/09 07:54:38;;;;;;;30.83;14.32;;;-2.30;99.90;;;;;;5029871;28;20060;-72
2022/12/09 07:57:03;;;;;;;31.30;14.13;;;-2.30;99.90;;;;;;4995190;28;20046;-73
2022/12/09 07:59:29;;;;;;;31.10;13.70;;;-2.20;99.90;;;;;;5010334;28;20137;-70
2022/12/09 08:01:55;;;;;;;35.45;15.52;;;-2.30;99.90;;;;;;4992807;28;20045;-71
2022/12/09 08:04:20;;;;;;;32.60;15.85;;;-2.20;99.90;;;;;;5009329;28;20050;-71
2022/12/09 08:06:46;;;;;;;33.45;15.77;;;-2.20;99.90;;;;;;5008718;28;20081;-70
2022/12/09 08:09:12;;;;;;;36.25;15.75;;;-2.20;99.90;;;;;;5010422;28;20187;-71
2022/12/09 08:11:38;;;;;;;39.13;17.70;;;-2.10;99.90;;;;;;5010309;28;20057;-73
2022/12/09 08:14:06;;;;;;;40.88;18.05;;;-2.00;99.90;;;;;;5009757;28;20049;-71
2022/12/09 08:16:32;;;;;;;36.35;17.38;;;-1.90;99.90;;;;;;5010337;28;20129;-72
2022/12/09 08:18:57;;;;;;;37.08;16.35;;;-1.90;99.90;;;;;;4992561;28;20124;-74
2022/12/09 08:21:26;;;;;;;35.85;16.38;;;-1.90;99.90;;;;;;5013754;28;20055;-72
2022/12/09 08:23:54;;;;;;;42.08;17.88;;;-1.90;99.90;;;;;;4992038;28;20046;-70
2022/12/09 08:26:22;;;;;;;37.78;17.55;;;-1.90;99.90;;;;;;4978930;28;20046;-76
2022/12/09 08:28:48;;;;;;;43.67;18.15;;;-1.80;99.90;;;;;;5010225;28;20457;-71
2022/12/09 08:31:16;;;;;;;56.75;21.52;;;-1.80;99.90;;;;;;5010339;28;20053;-73
2022/12/09 08:33:42;;;;;;;54.72;21.58;;;-1.70;99.90;;;;;;5009635;28;20061;-70
2022/12/09 08:36:13;;;;;;;57.17;22.80;;;-1.70;99.90;;;;;;5009577;28;20049;-71
2022/12/09 08:38:40;;;;;;;50.00;21.05;;;-1.60;99.90;;;;;;5009689;28;20048;-76
2022/12/09 08:41:33;;;;;;;53.92;22.30;;;-1.50;99.90;;;;;;4992088;28;20054;-71
2022/12/09 08:44:07;;;;;;;53.65;22.52;;;-1.40;99.90;;;;;;5008895;28;20485;-72
2022/12/09 08:46:34;;;;;;;55.42;22.15;;;-1.30;99.90;;;;;;5009298;28;20406;-71
2022/12/09 08:49:00;;;;;;;61.65;23.92;;;-1.20;99.90;;;;;;4995004;28;20061;-72
2022/12/09 08:51:28;;;;;;;61.63;24.55;;;-1.20;99.90;;;;;;4974065;28;20042;-69
2022/12/09 08:53:53;;;;;;;65.95;24.88;;;-1.20;99.90;;;;;;4994090;28;20053;-72
2022/12/09 08:56:19;;;;;;;86.18;25.10;;;-1.10;99.90;;;;;;5009410;28;20042;-72
2022/12/09 08:58:47;;;;;;;100.63;25.75;;;-1.10;99.90;;;;;;5009826;28;20140;-72
2022/12/09 09:01:17;;;;;;;114.78;26.48;;;-1.00;99.90;;;;;;5012603;28;20056;-72
2022/12/09 09:03:44;;;;;;;209.38;29.10;;;-0.90;99.90;;;;;;5020363;28;20051;-71
2022/12/09 09:06:10;;;;;;;118.10;26.02;;;-0.90;99.90;;;;;;5002345;28;20400;-75
2022/12/09 09:08:37;;;;;;;97.10;24.52;;;-0.90;99.90;;;;;;5032205;28;20050;-69
2022/12/09 09:11:09;;;;;;;121.10;25.27;;;-0.80;99.90;;;;;;5026461;28;20054;-69
2022/12/09 09:13:36;;;;;;;71.15;22.08;;;-0.80;99.90;;;;;;5012524;28;20070;-70
2022/12/09 09:16:01;;;;;;;60.03;21.70;;;-0.80;99.90;;;;;;4997376;28;20057;-69
2022/12/09 09:18:27;;;;;;;158.90;26.80;;;-0.70;99.90;;;;;;5028676;28;20049;-69
2022/12/09 09:20:57;;;;;;;115.18;23.65;;;-0.70;99.90;;;;;;4995118;28;20046;-74
2022/12/09 09:23:23;;;;;;;101.50;23.90;;;-0.60;99.90;;;;;;4995069;28;20062;-71
2022/12/09 09:25:49;;;;;;;125.55;24.25;;;-0.60;99.90;;;;;;5012707;28;20819;-72
2022/12/09 09:28:14;;;;;;;69.20;23.30;;;-0.60;99.90;;;;;;5012397;28;20050;-71
2022/12/09 09:30:40;;;;;;;64.55;22.73;;;-0.60;99.90;;;;;;5012526;28;20041;-71
2022/12/09 09:33:07;;;;;;;100.90;24.45;;;-0.60;99.90;;;;;;5012474;28;20056;-73
2022/12/09 09:35:32;;;;;;;55.10;22.05;;;-0.60;99.90;;;;;;4994980;28;20123;-70
2022/12/09 09:37:58;;;;;;;56.65;21.08;;;-0.60;99.90;;;;;;4994674;28;20469;-71
2022/12/09 09:40:25;;;;;;;72.65;22.48;;;-0.60;99.90;;;;;;5012312;28;20362;-71
2022/12/09 09:42:52;;;;;;;54.53;19.60;;;-0.60;99.90;;;;;;5012216;28;20129;-74
2022/12/09 09:45:21;;;;;;;54.17;18.40;;;-0.60;99.90;;;;;;4994405;28;20092;-71
2022/12/09 09:48:01;;;;;;;79.07;20.23;;;-0.60;99.90;;;;;;5012578;28;20401;-70
2022/12/09 09:50:54;;;;;;;47.08;18.77;;;-0.80;99.90;;;;;;5027551;28;20724;-78
2022/12/09 09:53:29;;;;;;;62.33;19.95;;;-0.60;99.90;;;;;;4992266;28;20054;-70
2022/12/09 09:56:01;;;;;;;68.43;19.33;;;-0.60;99.90;;;;;;4974672;28;20502;-72
2022/12/09 09:59:03;;;;;;;87.47;22.42;;;-0.60;99.90;;;;;;4996514;28;20048;-73
2022/12/09 10:01:33;;;;;;;72.38;20.77;;;-0.60;99.90;;;;;;5011993;28;20104;-70
2022/12/09 10:04:14;;;;;;;126.05;23.42;;;-0.60;99.90;;;;;;4994250;28;20081;-71
2022/12/09 10:07:14;;;;;;;134.85;24.75;;;-0.60;99.90;;;;;;4994218;28;20056;-71
2022/12/09 10:10:05;;;;;;;85.68;21.98;;;-0.50;99.90;;;;;;5012973;28;20042;-72
2022/12/09 10:12:57;;;;;;;83.07;21.38;;;-0.50;99.90;;;;;;5009470;28;20054;-70
2022/12/09 10:15:28;;;;;;;63.90;21.52;;;-0.50;99.90;;;;;;4994167;28;20057;-75
2022/12/09 10:18:09;;;;;;;101.38;24.35;;;-0.40;99.90;;;;;;5012951;28;20787;-74
2022/12/09 10:20:35;;;;;;;61.63;22.23;;;-0.40;99.90;;;;;;5015138;28;20050;-73
2022/12/09 10:23:20;;;;;;;86.13;25.02;;;-0.40;99.90;;;;;;5017422;28;20045;-71
2022/12/09 10:26:00;;;;;;;70.22;25.17;;;-0.30;99.90;;;;;;5010092;28;20045;-71
2022/12/09 10:28:32;;;;;;;65.75;23.92;;;-0.30;99.90;;;;;;5011612;28;20050;-71
2022/12/09 10:30:58;;;;;;;59.65;22.80;;;-0.30;99.90;;;;;;5011524;28;20063;-71
2022/12/09 10:33:29;;;;;;;65.90;22.30;;;-0.20;99.90;;;;;;4994036;28;20370;-74
2022/12/09 10:35:55;;;;;;;59.03;22.63;;;-0.20;99.90;;;;;;5010136;28;20513;-74
2022/12/09 10:38:21;;;;;;;61.85;21.85;;;-0.20;99.90;;;;;;5010608;28;20061;-72
2022/12/09 10:40:48;;;;;;;60.70;23.45;;;-0.10;99.90;;;;;;5011958;28;20767;-73
2022/12/09 10:43:41;;;;;;;64.00;24.10;;;-0.10;99.90;;;;;;5012069;28;20405;-72
2022/12/09 10:46:17;;;;;;;69.30;24.85;;;0.00;99.90;;;;;;4978262;28;20078;-70
2022/12/09 10:48:43;;;;;;;57.97;21.88;;;0.10;99.90;;;;;;5026733;28;20061;-70
2022/12/09 10:51:13;;;;;;;66.47;23.13;;;0.10;99.90;;;;;;5031231;28;20060;-72
2022/12/09 10:53:52;;;;;;;67.72;23.25;;;0.10;99.90;;;;;;4993902;28;20136;-75
2022/12/09 10:56:38;;;;;;;53.20;21.73;;;0.10;99.90;;;;;;5012719;28;20041;-71
2022/12/09 10:59:17;;;;;;;65.53;21.33;;;0.10;99.90;;;;;;5011327;28;20052;-72
2022/12/09 11:01:52;;;;;;;55.80;21.20;;;0.20;99.90;;;;;;5011419;28;20042;-76
2022/12/09 11:04:53;;;;;;;66.63;22.75;;;0.10;99.90;;;;;;5011120;28;20176;-75
2022/12/09 11:07:25;;;;;;;80.43;21.50;;;0.20;99.90;;;;;;4969025;28;20098;-69
2022/12/09 11:09:56;;;;;;;68.68;22.70;;;0.20;99.90;;;;;;4969604;28;20584;-70
2022/12/09 11:12:28;;;;;;;53.60;21.52;;;0.20;99.90;;;;;;4953341;28;20376;-75
2022/12/09 11:15:00;;;;;;;79.78;24.05;;;0.20;99.90;;;;;;4953026;28;20058;-72
2022/12/09 11:17:38;;;;;;;69.03;25.30;;;0.20;99.90;;;;;;4952662;28;20070;-70
2022/12/09 11:20:04;;;;;;;62.85;24.05;;;0.20;99.90;;;;;;4953071;28;20195;-70
2022/12/09 11:22:38;;;;;;;75.22;24.08;;;0.30;99.90;;;;;;4952873;28;20133;-77
2022/12/09 11:25:09;;;;;;;59.17;23.30;;;0.20;99.90;;;;;;4953100;28;20070;-75
2022/12/09 11:27:35;;;;;;;54.15;23.65;;;0.20;99.90;;;;;;4968324;28;20058;-72
2022/12/09 11:30:04;;;;;;;60.28;23.85;;;0.20;99.90;;;;;;4961843;28;20136;-72
2022/12/09 11:32:30;;;;;;;58.10;24.75;;;0.20;99.90;;;;;;4988534;28;20050;-77
2022/12/09 11:34:55;;;;;;;54.35;24.35;;;0.30;99.90;;;;;;4970309;28;20050;-72
2022/12/09 11:37:21;;;;;;;57.22;23.90;;;0.30;99.90;;;;;;4968522;28;20069;-71
2022/12/09 11:39:49;;;;;;;56.67;24.52;;;0.30;99.90;;;;;;4958464;28;20050;-75
2022/12/09 11:42:19;;;;;;;60.65;23.95;;;0.30;99.90;;;;;;4971897;28;20134;-75
2022/12/09 11:45:03;;;;;;;62.95;24.65;;;0.30;99.90;;;;;;5013078;28;20069;-69
2022/12/09 11:47:29;;;;;;;62.90;24.75;;;0.30;99.90;;;;;;4992185;28;20520;-68
2022/12/09 11:50:22;;;;;;;55.72;24.85;;;0.40;99.90;;;;;;5010440;28;20089;-75
2022/12/09 11:53:09;;;;;;;52.45;22.88;;;0.40;99.90;;;;;;5010086;28;20501;-73
2022/12/09 11:55:44;;;;;;;51.42;22.95;;;0.40;99.90;;;;;;5010020;28;20464;-75
2022/12/09 11:58:14;;;;;;;54.38;23.38;;;0.40;99.90;;;;;;4993278;28;20128;-71
2022/12/09 12:00:47;;;;;;;59.63;23.65;;;0.40;99.90;;;;;;5010012;28;20056;-71
2022/12/09 12:03:36;;;;;;;60.60;24.42;;;0.40;99.90;;;;;;5009697;28;20500;-70
2022/12/09 12:06:13;;;;;;;53.78;24.27;;;0.50;99.90;;;;;;5012502;28;20366;-76
2022/12/09 12:08:47;;;;;;;57.30;24.42;;;0.50;99.90;;;;;;4976303;28;20046;-75
2022/12/09 12:11:22;;;;;;;55.63;23.63;;;0.40;99.90;;;;;;4990587;28;20078;-74
2022/12/09 12:13:49;;;;;;;58.83;26.13;;;0.40;99.90;;;;;;4990172;28;20110;-73
2022/12/09 12:16:36;;;;;;;64.55;25.77;;;0.50;99.90;;;;;;4972590;28;20425;-71
2022/12/09 12:19:32;;;;;;;52.55;24.88;;;0.50;99.90;;;;;;4990115;28;20093;-70
2022/12/09 12:22:13;;;;;;;61.38;25.95;;;0.60;99.90;;;;;;4998250;28;20056;-70
2022/12/09 12:25:05;;;;;;;59.20;26.25;;;0.60;99.90;;;;;;5009580;28;20085;-71
2022/12/09 12:27:45;;;;;;;60.15;24.58;;;0.60;99.90;;;;;;4991847;28;20065;-72
2022/12/09 12:30:19;;;;;;;62.72;24.63;;;0.60;99.90;;;;;;5009342;28;20061;-72
2022/12/09 12:33:06;;;;;;;60.95;25.95;;;0.60;99.90;;;;;;4999404;28;20468;-71
2022/12/09 12:35:57;;;;;;;50.85;23.55;;;0.60;99.90;;;;;;4994298;28;20057;-70
2022/12/09 12:38:51;;;;;;;52.83;23.02;;;0.70;99.90;;;;;;5028933;28;20042;-77
2022/12/09 12:41:31;;;;;;;50.53;22.73;;;0.60;99.90;;;;;;5011361;28;20199;-72
2022/12/09 12:47:27;;;;;;;47.00;22.40;;;0.70;99.90;;;;;;5029022;28;20136;-71